默认 日期 大小 文件数 浏览量 最新下载 xml
workout磁力链接相关资源由用户搜索指令自动获取,结果来源于网络,本站不存储任何资料,亦不承担任何责任,请于24小时内删除,搜索到9312个磁力,显示前4000条数据,用时4ms。
    {"Torrent downloaded from PublicHash.com.nfo": 151, "saf.13.06.06.shae.snow.workout.wanking.mp4": 2396505673}
创建时间: 2019-01-28 05:37:09 大小:2.23 GB 文件数量:2 热度:35 最近下载:2025-05-08 10:58:05
    {"49671_01_hd.mp4": 864906880, "49671_02_hd.mp4": 920637439, "49671_03_hd.mp4": 890054992, "49671_04_hd.mp4": 941611601, "49671_05_hd.mp4": 201336624, "49671_06_hd.mp4": 168597799, "49671_07_hd.mp4": 122645037, "49671_08_hd.mp4": 176994946}
创建时间: 2019-01-28 06:36:38 大小:3.99 GB 文件数量:8 热度:5 最近下载:2022-11-12 12:33:23
    {"[Twistys] Brett Rossi (Pre-Workout) {Shysty127}": {"Screen Shots": {"Star.jpg": 474067, "Back_Cover.jpg": 446531, "Front_Cover.jpg": 489118}, "[Twistys] Brett Rossi (Pre-Workout).mp4": 215695968, "[Twistys] Brett Rossi (Pre-Workout).mp4.jpg": 432599}}
创建时间: 2019-01-28 07:50:36 大小:207.46 MB 文件数量:5 热度:6 最近下载:2024-12-31 08:45:01
    {"VIDEO_TS": {"VIDEO_TS.BUP": 12288, "VIDEO_TS.IFO": 12288, "VTS_01_0.BUP": 24576, "VTS_01_0.IFO": 24576, "VTS_01_0.VOB": 77312000, "VTS_01_1.VOB": 4460544, "VTS_02_0.BUP": 98304, "VTS_02_0.IFO": 98304, "VTS_02_0.VOB": 155648, "VTS_02_1.VOB": 1073739776, " ...
创建时间: 2019-01-28 08:29:24 大小:6.95 GB 文件数量:24 热度:7 最近下载:2022-11-12 10:44:27
    {"25928_01_hd.mp4": 622452886}
创建时间: 2019-01-28 08:51:08 大小:593.62 MB 文件数量:1 热度:10 最近下载:2025-08-06 13:35:04
    {"poster.jpg": 22466, "screens.jpg": 192891, "RARBG.com.txt": 33, "EvilAngel.Kagney.Lynn.Karter.Gia.Love.Rectal.Workout.mp4": 427375343}
创建时间: 2019-01-28 08:54:33 大小:407.78 MB 文件数量:4 热度:10 最近下载:2025-01-01 23:28:02
    {"c0ver.jpg": 127256, "04. TK - Papi - 132 Bpm.mp3": 10532730, "24. Kyria - Loca - 128 Bpm.mp3": 10290317, "01. Gloriana - Oye - 133 Bpm.mp3": 10989356, "11. Kyria - Rabiosa - 132 Bpm.mp3": 9547397, "26. Kyria - Shake It - 128 Bpm.mp3": 10100149, "07. Red ...
创建时间: 2019-01-28 09:21:12 大小:312.09 MB 文件数量:31 热度:7 最近下载:2022-11-12 10:02:50
    {"Torrent downloaded from Demonoid.com.txt": 47, "Comprehensive Bodyweight Workout List, v1.0.pdf": 108963}
创建时间: 2019-01-28 11:19:59 大小:106.46 KB 文件数量:2 热度:5 最近下载:2022-11-12 10:19:41
    {"CienPorCienWebs.rar": 1176, "Cameltoe.Workout.2.CD1.[English.XXX.DVDRip.[www.CienPorCienPorno.com].avi": 731191296, "Cameltoe.Workout.2.CD2.[English.XXX.DVDRip.[www.CienPorCienPorno.com].avi": 730830848}
创建时间: 2019-01-28 12:07:44 大小:1.36 GB 文件数量:3 热度:6 最近下载:2022-11-12 10:39:48
    {"[18YearsOld] 2014-08-08 - Ariana Marie - Post Workout Sex [mp4][1920x1080].mp4": 1055481581}
创建时间: 2019-01-28 13:14:09 大小:1006.59 MB 文件数量:1 热度:8 最近下载:2025-09-17 05:33:16
    {"Mens Health Belly Off Guide 2014.tgz": 45745089, "Torrent downloaded from AhaShare.com.txt": 58, "Torrent Downloaded From ExtraTorrent.com.txt": 339}
创建时间: 2019-01-28 13:30:18 大小:43.63 MB 文件数量:3 热度:10 最近下载:2025-09-16 16:47:08
    {"Insanity Cardio Power & Resistance.iso": 2185973760, "Insanity Plyometric Cardio Circuit.iso": 2418542592, "Insanity Cardio Recovery & Max Recovery.iso": 2418542592}
创建时间: 2019-01-28 14:15:02 大小:6.54 GB 文件数量:3 热度:7 最近下载:2022-11-12 10:27:54
    {"Torrent Downloads piratepublic.com.txt": 225, "lta_natalia_mendez_jl022115_480p_1000.mp4": 411039179}
创建时间: 2019-01-28 14:43:39 大小:392 MB 文件数量:2 热度:7 最近下载:2024-11-12 20:22:02
    {"Torrent downloaded from PornLeech.com.nfo": 46, "[PornFidelity] Jessie Rogers - All Anal Workout.mp4": 531839115}
创建时间: 2019-01-28 16:35:22 大小:507.2 MB 文件数量:2 热度:4 最近下载:2022-11-12 12:34:38
    {"Lesbian.Workout.3.mp4": 2415310317}
创建时间: 2019-01-28 17:01:13 大小:2.25 GB 文件数量:1 热度:6 最近下载:2024-11-03 01:04:01
    {"Disc 1": {"18 Taio Cruz - Dynamite.mp3": 8226467, "19 Freemasons - Bring It Back.mp3": 9752030, "15 Rogerseventytwo - You Take Me Higher.mp3": 6359266, "01 DJ Fresh - Gold Dust (Shy FX Re-Edit).mp3": 7415672, "05 Jessie J feat. David Guetta - LaserLight. ...
创建时间: 2019-01-28 17:53:11 大小:572.97 MB 文件数量:61 热度:7 最近下载:2022-11-12 10:51:07
    ... - Harley Jade - Big Booty Anal Workout.mp4": 1790539930, "ty997.com~� ...
创建时间: 2019-01-28 18:31:29 大小:1.71 GB 文件数量:53 热度:11 最近下载:2024-02-15 15:52:01
    {"Pilates Gymball Workout.mp4": 592422257}
创建时间: 2019-01-28 23:54:21 大小:564.98 MB 文件数量:1 热度:10 最近下载:2025-08-03 11:22:09
    {"RARBG.txt": 30, "DigitalPlayground.17.09.15.Alexis.Monroe.Wettest.Workout.3.XXX.SD.MP4-KLEENEX.mp4": 212613277}
创建时间: 2019-01-29 00:20:42 大小:202.76 MB 文件数量:2 热度:19 最近下载:2025-04-02 20:50:02
    {"CourseYoda.com.txt": 609, "CourseYoda.com.url": 117, "How you can support course Yoda.txt": 95, "[TGx]Downloaded from torrentgalaxy.org .txt": 587, "Udemy - 5-Minute Workout Motivation Audio Technology [CourseYoda.com].zip": 460727884}
创建时间: 2019-01-29 00:59:23 大小:439.39 MB 文件数量:5 热度:6 最近下载:2022-11-15 20:23:41